sensor_id;sensor_type;location;lat;lon;timestamp;temperature;humidity
15341;DHT22;7770;52.158;5.372;2023-06-01T00:00:17;11.90;99.90
15341;DHT22;7770;52.158;5.372;2023-06-01T00:03:03;11.80;99.90
15341;DHT22;7770;52.158;5.372;2023-06-01T00:05:49;11.90;99.90
15341;DHT22;7770;52.158;5.372;2023-06-01T00:08:36;11.90;99.90
15341;DHT22;7770;52.158;5.372;2023-06-01T00:11:22;11.90;99.90
15341;DHT22;7770;52.158;5.372;2023-06-01T00:14:09;11.90;99.90
15341;DHT22;7770;52.158;5.372;2023-06-01T00:16:55;12.00;99.90
15341;DHT22;7770;52.158;5.372;2023-06-01T00:19:42;12.00;99.90
15341;DHT22;7770;52.158;5.372;2023-06-01T00:22:30;11.80;99.90
15341;DHT22;7770;52.158;5.372;2023-06-01T00:25:19;11.80;99.90
15341;DHT22;7770;52.158;5.372;2023-06-01T00:28:05;11.80;99.90
15341;DHT22;7770;52.158;5.372;2023-06-01T00:30:52;11.80;99.90
15341;DHT22;7770;52.158;5.372;2023-06-01T00:33:38;11.80;99.90
15341;DHT22;7770;52.158;5.372;2023-06-01T00:36:25;12.00;99.90
15341;DHT22;7770;52.158;5.372;2023-06-01T00:39:11;11.90;99.90
15341;DHT22;7770;52.158;5.372;2023-06-01T00:41:57;12.00;99.90
15341;DHT22;7770;52.158;5.372;2023-06-01T00:44:43;12.00;99.90
15341;DHT22;7770;52.158;5.372;2023-06-01T00:47:29;11.90;99.90
15341;DHT22;7770;52.158;5.372;2023-06-01T00:50:16;11.90;99.90
15341;DHT22;7770;52.158;5.372;2023-06-01T00:53:05;11.90;99.90
15341;DHT22;7770;52.158;5.372;2023-06-01T00:55:53;12.10;99.90
15341;DHT22;7770;52.158;5.372;2023-06-01T00:58:40;12.10;99.90
15341;DHT22;7770;52.158;5.372;2023-06-01T01:01:26;12.00;99.90
15341;DHT22;7770;52.158;5.372;2023-06-01T01:04:12;11.90;99.90
15341;DHT22;7770;52.158;5.372;2023-06-01T01:07:15;11.80;99.90
15341;DHT22;7770;52.158;5.372;2023-06-01T01:13:41;12.00;99.90
15341;DHT22;7770;52.158;5.372;2023-06-01T01:20:01;11.90;99.90
15341;DHT22;7770;52.158;5.372;2023-06-01T01:23:24;12.00;99.90
15341;DHT22;7770;52.158;5.372;2023-06-01T01:29:33;12.00;99.90
15341;DHT22;7770;52.158;5.372;2023-06-01T01:32:23;12.00;99.90
15341;DHT22;7770;52.158;5.372;2023-06-01T01:35:11;12.10;99.90
15341;DHT22;7770;52.158;5.372;2023-06-01T01:37:57;12.00;99.90
15341;DHT22;7770;52.158;5.372;2023-06-01T01:40:43;11.90;99.90
15341;DHT22;7770;52.158;5.372;2023-06-01T01:43:30;11.70;99.90
15341;DHT22;7770;52.158;5.372;2023-06-01T01:46:23;11.80;99.90
15341;DHT22;7770;52.158;5.372;2023-06-01T01:49:23;11.70;99.90
15341;DHT22;7770;52.158;5.372;2023-06-01T01:55:12;11.80;99.90
15341;DHT22;7770;52.158;5.372;2023-06-01T01:58:02;11.70;99.90
15341;DHT22;7770;52.158;5.372;2023-06-01T02:00:49;11.80;99.90
15341;DHT22;7770;52.158;5.372;2023-06-01T02:03:35;11.70;99.90
15341;DHT22;7770;52.158;5.372;2023-06-01T02:06:21;11.60;99.90
15341;DHT22;7770;52.158;5.372;2023-06-01T02:09:07;11.70;99.90
15341;DHT22;7770;52.158;5.372;2023-06-01T02:11:54;11.50;99.90
15341;DHT22;7770;52.158;5.372;2023-06-01T02:14:40;11.60;99.90
15341;DHT22;7770;52.158;5.372;2023-06-01T02:17:26;11.60;99.90
15341;DHT22;7770;52.158;5.372;2023-06-01T02:20:12;11.70;99.90
15341;DHT22;7770;52.158;5.372;2023-06-01T02:22:58;11.80;99.90
15341;DHT22;7770;52.158;5.372;2023-06-01T02:25:44;11.70;99.90
15341;DHT22;7770;52.158;5.372;2023-06-01T02:28:31;11.70;99.90
15341;DHT22;7770;52.158;5.372;2023-06-01T02:31:17;11.60;99.90
15341;DHT22;7770;52.158;5.372;2023-06-01T02:34:03;11.60;99.90
15341;DHT22;7770;52.158;5.372;2023-06-01T02:36:49;11.60;99.90
15341;DHT22;7770;52.158;5.372;2023-06-01T02:39:35;11.70;99.90
15341;DHT22;7770;52.158;5.372;2023-06-01T02:42:21;11.60;99.90
15341;DHT22;7770;52.158;5.372;2023-06-01T02:45:08;11.70;99.90
15341;DHT22;7770;52.158;5.372;2023-06-01T02:47:54;11.70;99.90
15341;DHT22;7770;52.158;5.372;2023-06-01T02:50:40;11.70;99.90
15341;DHT22;7770;52.158;5.372;2023-06-01T02:53:26;11.60;99.90
15341;DHT22;7770;52.158;5.372;2023-06-01T02:56:13;11.70;99.90
15341;DHT22;7770;52.158;5.372;2023-06-01T02:58:59;11.70;99.90
15341;DHT22;7770;52.158;5.372;2023-06-01T03:01:46;11.70;99.90
15341;DHT22;7770;52.158;5.372;2023-06-01T03:04:32;11.60;99.90
15341;DHT22;7770;52.158;5.372;2023-06-01T03:07:18;11.50;99.90
15341;DHT22;7770;52.158;5.372;2023-06-01T03:10:04;11.60;99.90
15341;DHT22;7770;52.158;5.372;2023-06-01T03:12:52;11.60;99.90
15341;DHT22;7770;52.158;5.372;2023-06-01T03:15:38;11.60;99.90
15341;DHT22;7770;52.158;5.372;2023-06-01T03:18:24;11.50;99.90
15341;DHT22;7770;52.158;5.372;2023-06-01T03:21:10;11.60;99.90
15341;DHT22;7770;52.158;5.372;2023-06-01T03:23:56;11.40;99.90
15341;DHT22;7770;52.158;5.372;2023-06-01T03:26:42;11.50;99.90
15341;DHT22;7770;52.158;5.372;2023-06-01T03:29:28;11.50;99.90
15341;DHT22;7770;52.158;5.372;2023-06-01T03:32:14;11.40;99.90
15341;DHT22;7770;52.158;5.372;2023-06-01T03:35:01;11.50;99.90
15341;DHT22;7770;52.158;5.372;2023-06-01T03:37:47;11.50;99.90
15341;DHT22;7770;52.158;5.372;2023-06-01T03:40:33;11.60;99.90
15341;DHT22;7770;52.158;5.372;2023-06-01T03:43:19;11.50;99.90
15341;DHT22;7770;52.158;5.372;2023-06-01T03:46:05;11.60;99.90
15341;DHT22;7770;52.158;5.372;2023-06-01T03:48:51;11.60;99.90
15341;DHT22;7770;52.158;5.372;2023-06-01T03:51:37;11.50;99.90
15341;DHT22;7770;52.158;5.372;2023-06-01T03:54:24;11.60;99.90
15341;DHT22;7770;52.158;5.372;2023-06-01T03:57:10;11.60;99.90
15341;DHT22;7770;52.158;5.372;2023-06-01T03:59:56;11.50;99.90
15341;DHT22;7770;52.158;5.372;2023-06-01T04:02:42;11.50;99.90
15341;DHT22;7770;52.158;5.372;2023-06-01T04:05:28;11.50;99.90
15341;DHT22;7770;52.158;5.372;2023-06-01T04:08:14;11.50;99.90
15341;DHT22;7770;52.158;5.372;2023-06-01T04:11:00;11.50;99.90
15341;DHT22;7770;52.158;5.372;2023-06-01T04:13:46;11.60;99.90
15341;DHT22;7770;52.158;5.372;2023-06-01T04:16:33;11.50;99.90
15341;DHT22;7770;52.158;5.372;2023-06-01T04:19:19;11.60;99.90
15341;DHT22;7770;52.158;5.372;2023-06-01T04:22:05;11.60;99.90
15341;DHT22;7770;52.158;5.372;2023-06-01T04:24:51;11.60;99.90
15341;DHT22;7770;52.158;5.372;2023-06-01T04:27:41;11.50;99.90
15341;DHT22;7770;52.158;5.372;2023-06-01T04:30:30;11.60;99.90
15341;DHT22;7770;52.158;5.372;2023-06-01T04:33:16;11.70;99.90
15341;DHT22;7770;52.158;5.372;2023-06-01T04:36:05;11.70;99.90
15341;DHT22;7770;52.158;5.372;2023-06-01T04:38:52;11.50;99.90
15341;DHT22;7770;52.158;5.372;2023-06-01T04:41:39;11.50;99.90
15341;DHT22;7770;52.158;5.372;2023-06-01T04:44:25;11.60;99.90
15341;DHT22;7770;52.158;5.372;2023-06-01T04:47:11;11.80;99.90
15341;DHT22;7770;52.158;5.372;2023-06-01T04:49:58;11.90;99.90
15341;DHT22;7770;52.158;5.372;2023-06-01T04:52:44;11.80;99.90
15341;DHT22;7770;52.158;5.372;2023-06-01T04:55:30;12.00;99.90
15341;DHT22;7770;52.158;5.372;2023-06-01T04:58:17;12.10;99.90
15341;DHT22;7770;52.158;5.372;2023-06-01T05:01:03;12.10;99.90
15341;DHT22;7770;52.158;5.372;2023-06-01T05:03:49;12.10;99.90
15341;DHT22;7770;52.158;5.372;2023-06-01T05:06:35;12.10;99.90
15341;DHT22;7770;52.158;5.372;2023-06-01T05:09:21;12.10;99.90
15341;DHT22;7770;52.158;5.372;2023-06-01T05:12:07;12.10;99.90
15341;DHT22;7770;52.158;5.372;2023-06-01T05:14:53;12.20;99.90
15341;DHT22;7770;52.158;5.372;2023-06-01T05:17:39;12.40;99.90
15341;DHT22;7770;52.158;5.372;2023-06-01T05:20:25;12.20;99.90
15341;DHT22;7770;52.158;5.372;2023-06-01T05:23:12;12.30;99.90
15341;DHT22;7770;52.158;5.372;2023-06-01T05:25:58;12.40;99.90
15341;DHT22;7770;52.158;5.372;2023-06-01T05:28:51;12.50;99.90
15341;DHT22;7770;52.158;5.372;2023-06-01T05:31:37;12.50;99.90
15341;DHT22;7770;52.158;5.372;2023-06-01T05:34:23;12.60;99.90
15341;DHT22;7770;52.158;5.372;2023-06-01T05:37:09;12.80;99.90
15341;DHT22;7770;52.158;5.372;2023-06-01T05:39:55;12.80;99.90
15341;DHT22;7770;52.158;5.372;2023-06-01T05:42:41;12.90;99.90
15341;DHT22;7770;52.158;5.372;2023-06-01T05:45:27;12.70;99.90
15341;DHT22;7770;52.158;5.372;2023-06-01T05:48:14;12.60;99.90
15341;DHT22;7770;52.158;5.372;2023-06-01T05:51:00;12.40;99.90
15341;DHT22;7770;52.158;5.372;2023-06-01T05:53:46;12.40;99.90
15341;DHT22;7770;52.158;5.372;2023-06-01T05:56:32;12.60;99.90
15341;DHT22;7770;52.158;5.372;2023-06-01T05:59:18;12.90;99.90
15341;DHT22;7770;52.158;5.372;2023-06-01T06:02:04;13.10;99.90
15341;DHT22;7770;52.158;5.372;2023-06-01T06:04:51;13.10;99.90
15341;DHT22;7770;52.158;5.372;2023-06-01T06:07:37;13.10;99.90
15341;DHT22;7770;52.158;5.372;2023-06-01T06:10:23;13.30;99.90
15341;DHT22;7770;52.158;5.372;2023-06-01T06:13:09;13.20;99.90
15341;DHT22;7770;52.158;5.372;2023-06-01T06:15:56;13.20;99.90
15341;DHT22;7770;52.158;5.372;2023-06-01T06:18:42;13.30;99.90
15341;DHT22;7770;52.158;5.372;2023-06-01T06:21:28;13.30;99.90
15341;DHT22;7770;52.158;5.372;2023-06-01T06:24:14;13.30;99.90
15341;DHT22;7770;52.158;5.372;2023-06-01T06:27:00;13.50;99.90
15341;DHT22;7770;52.158;5.372;2023-06-01T06:29:47;13.60;99.90
15341;DHT22;7770;52.158;5.372;2023-06-01T06:32:33;13.50;99.90
15341;DHT22;7770;52.158;5.372;2023-06-01T06:35:20;13.60;99.90
15341;DHT22;7770;52.158;5.372;2023-06-01T06:38:06;13.70;99.90
15341;DHT22;7770;52.158;5.372;2023-06-01T06:40:52;13.70;99.90
15341;DHT22;7770;52.158;5.372;2023-06-01T06:43:38;13.80;99.90
15341;DHT22;7770;52.158;5.372;2023-06-01T06:46:24;13.70;99.90
15341;DHT22;7770;52.158;5.372;2023-06-01T06:49:10;13.70;99.90
15341;DHT22;7770;52.158;5.372;2023-06-01T06:51:56;13.90;99.90
15341;DHT22;7770;52.158;5.372;2023-06-01T06:54:43;14.10;99.90
15341;DHT22;7770;52.158;5.372;2023-06-01T06:57:29;14.20;99.90
15341;DHT22;7770;52.158;5.372;2023-06-01T07:00:15;14.30;99.90
15341;DHT22;7770;52.158;5.372;2023-06-01T07:03:02;14.70;99.90
15341;DHT22;7770;52.158;5.372;2023-06-01T07:05:48;14.90;99.90
15341;DHT22;7770;52.158;5.372;2023-06-01T07:08:35;15.00;99.90
15341;DHT22;7770;52.158;5.372;2023-06-01T07:11:21;15.40;99.90
15341;DHT22;7770;52.158;5.372;2023-06-01T07:14:09;15.80;99.90
15341;DHT22;7770;52.158;5.372;2023-06-01T07:16:55;15.60;99.90
15341;DHT22;7770;52.158;5.372;2023-06-01T07:19:41;15.20;99.90
15341;DHT22;7770;52.158;5.372;2023-06-01T07:22:28;15.00;99.90
15341;DHT22;7770;52.158;5.372;2023-06-01T07:25:14;15.10;99.90
15341;DHT22;7770;52.158;5.372;2023-06-01T07:28:01;15.40;99.90
15341;DHT22;7770;52.158;5.372;2023-06-01T07:30:53;15.70;99.90
15341;DHT22;7770;52.158;5.372;2023-06-01T07:33:39;15.80;99.90
15341;DHT22;7770;52.158;5.372;2023-06-01T07:36:26;15.50;99.90
15341;DHT22;7770;52.158;5.372;2023-06-01T07:39:13;15.80;99.90
15341;DHT22;7770;52.158;5.372;2023-06-01T07:42:00;15.50;99.90
15341;DHT22;7770;52.158;5.372;2023-06-01T07:44:46;15.90;99.90
15341;DHT22;7770;52.158;5.372;2023-06-01T07:47:33;15.90;99.90
15341;DHT22;7770;52.158;5.372;2023-06-01T07:50:19;16.00;99.90
15341;DHT22;7770;52.158;5.372;2023-06-01T07:53:05;16.00;99.90
15341;DHT22;7770;52.158;5.372;2023-06-01T07:55:51;16.00;99.90
15341;DHT22;7770;52.158;5.372;2023-06-01T07:58:37;16.10;99.90
15341;DHT22;7770;52.158;5.372;2023-06-01T08:01:23;16.30;99.90
15341;DHT22;7770;52.158;5.372;2023-06-01T08:04:09;16.80;99.90
15341;DHT22;7770;52.158;5.372;2023-06-01T08:06:56;16.40;99.90
15341;DHT22;7770;52.158;5.372;2023-06-01T08:09:43;16.80;99.90
15341;DHT22;7770;52.158;5.372;2023-06-01T08:12:29;17.30;99.90
15341;DHT22;7770;52.158;5.372;2023-06-01T08:15:15;17.60;99.90
15341;DHT22;7770;52.158;5.372;2023-06-01T08:18:04;18.00;99.90
15341;DHT22;7770;52.158;5.372;2023-06-01T08:20:51;17.60;99.90
15341;DHT22;7770;52.158;5.372;2023-06-01T08:23:38;18.00;99.90
15341;DHT22;7770;52.158;5.372;2023-06-01T08:26:24;18.00;99.90
15341;DHT22;7770;52.158;5.372;2023-06-01T08:29:11;18.10;99.90
15341;DHT22;7770;52.158;5.372;2023-06-01T08:31:57;18.40;99.90
15341;DHT22;7770;52.158;5.372;2023-06-01T08:34:45;18.60;99.90
15341;DHT22;7770;52.158;5.372;2023-06-01T08:37:35;18.20;99.90
15341;DHT22;7770;52.158;5.372;2023-06-01T08:40:22;17.80;99.90
15341;DHT22;7770;52.158;5.372;2023-06-01T08:43:17;18.30;99.90
15341;DHT22;7770;52.158;5.372;2023-06-01T08:46:06;18.80;99.90
15341;DHT22;7770;52.158;5.372;2023-06-01T08:48:54;18.90;99.90
15341;DHT22;7770;52.158;5.372;2023-06-01T08:51:43;19.10;99.90
15341;DHT22;7770;52.158;5.372;2023-06-01T08:54:30;19.00;99.90
15341;DHT22;7770;52.158;5.372;2023-06-01T08:57:16;18.90;99.90
15341;DHT22;7770;52.158;5.372;2023-06-01T09:00:03;18.90;99.90
15341;DHT22;7770;52.158;5.372;2023-06-01T09:02:50;18.90;99.90
15341;DHT22;7770;52.158;5.372;2023-06-01T09:05:36;18.90;99.90
15341;DHT22;7770;52.158;5.372;2023-06-01T09:08:23;19.00;99.90
15341;DHT22;7770;52.158;5.372;2023-06-01T09:11:10;19.10;99.90
15341;DHT22;7770;52.158;5.372;2023-06-01T09:13:56;19.30;99.90
15341;DHT22;7770;52.158;5.372;2023-06-01T09:16:42;19.50;99.90
15341;DHT22;7770;52.158;5.372;2023-06-01T09:19:41;19.40;99.90
15341;DHT22;7770;52.158;5.372;2023-06-01T09:22:42;19.80;99.70
15341;DHT22;7770;52.158;5.372;2023-06-01T09:25:33;20.00;99.60
15341;DHT22;7770;52.158;5.372;2023-06-01T09:28:20;20.30;99.20
15341;DHT22;7770;52.158;5.372;2023-06-01T09:31:06;20.40;98.90
15341;DHT22;7770;52.158;5.372;2023-06-01T09:33:59;21.90;97.30
15341;DHT22;7770;52.158;5.372;2023-06-01T09:36:50;22.40;96.00
15341;DHT22;7770;52.158;5.372;2023-06-01T09:39:37;21.80;96.40
15341;DHT22;7770;52.158;5.372;2023-06-01T09:42:34;22.20;95.80
15341;DHT22;7770;52.158;5.372;2023-06-01T09:45:21;23.10;95.20
15341;DHT22;7770;52.158;5.372;2023-06-01T09:48:18;23.40;94.00
15341;DHT22;7770;52.158;5.372;2023-06-01T09:51:04;22.90;93.20
15341;DHT22;7770;52.158;5.372;2023-06-01T09:53:51;24.10;93.30
15341;DHT22;7770;52.158;5.372;2023-06-01T09:56:43;24.20;93.60
15341;DHT22;7770;52.158;5.372;2023-06-01T09:59:46;24.20;93.10
15341;DHT22;7770;52.158;5.372;2023-06-01T10:02:33;24.10;93.20
15341;DHT22;7770;52.158;5.372;2023-06-01T10:05:20;24.70;92.00
15341;DHT22;7770;52.158;5.372;2023-06-01T10:08:06;24.50;92.60
15341;DHT22;7770;52.158;5.372;2023-06-01T10:10:52;24.80;92.20
15341;DHT22;7770;52.158;5.372;2023-06-01T10:13:38;24.30;92.30
15341;DHT22;7770;52.158;5.372;2023-06-01T10:16:25;23.10;93.30
15341;DHT22;7770;52.158;5.372;2023-06-01T10:19:12;23.60;94.10
15341;DHT22;7770;52.158;5.372;2023-06-01T10:21:58;24.10;92.60
15341;DHT22;7770;52.158;5.372;2023-06-01T10:24:45;23.30;93.20
15341;DHT22;7770;52.158;5.372;2023-06-01T10:27:38;23.60;93.20
15341;DHT22;7770;52.158;5.372;2023-06-01T10:30:25;24.90;91.90
15341;DHT22;7770;52.158;5.372;2023-06-01T10:33:11;25.10;91.90
15341;DHT22;7770;52.158;5.372;2023-06-01T10:35:59;25.70;90.70
15341;DHT22;7770;52.158;5.372;2023-06-01T10:38:46;24.70;91.50
15341;DHT22;7770;52.158;5.372;2023-06-01T10:41:32;24.20;92.30
15341;DHT22;7770;52.158;5.372;2023-06-01T10:50:21;23.80;93.00
15341;DHT22;7770;52.158;5.372;2023-06-01T10:56:25;24.70;91.60
15341;DHT22;7770;52.158;5.372;2023-06-01T10:59:12;24.00;92.30
15341;DHT22;7770;52.158;5.372;2023-06-01T11:02:04;23.90;92.70
15341;DHT22;7770;52.158;5.372;2023-06-01T11:04:50;24.90;92.00
15341;DHT22;7770;52.158;5.372;2023-06-01T11:07:39;25.10;91.60
15341;DHT22;7770;52.158;5.372;2023-06-01T11:13:37;23.50;93.90
15341;DHT22;7770;52.158;5.372;2023-06-01T11:19:18;23.60;93.50
15341;DHT22;7770;52.158;5.372;2023-06-01T11:22:10;23.10;93.60
15341;DHT22;7770;52.158;5.372;2023-06-01T11:24:58;23.00;93.30
15341;DHT22;7770;52.158;5.372;2023-06-01T11:27:44;23.30;93.50
15341;DHT22;7770;52.158;5.372;2023-06-01T11:30:31;24.00;93.10
15341;DHT22;7770;52.158;5.372;2023-06-01T11:33:17;23.50;93.30
15341;DHT22;7770;52.158;5.372;2023-06-01T11:36:04;23.20;93.80
15341;DHT22;7770;52.158;5.372;2023-06-01T11:38:52;23.20;93.80
15341;DHT22;7770;52.158;5.372;2023-06-01T11:41:38;23.00;93.90
15341;DHT22;7770;52.158;5.372;2023-06-01T11:44:24;22.40;94.90
15341;DHT22;7770;52.158;5.372;2023-06-01T11:47:12;22.30;95.80
15341;DHT22;7770;52.158;5.372;2023-06-01T11:49:58;22.20;95.80
15341;DHT22;7770;52.158;5.372;2023-06-01T11:52:45;21.30;97.00
15341;DHT22;7770;52.158;5.372;2023-06-01T11:55:31;21.30;97.00
15341;DHT22;7770;52.158;5.372;2023-06-01T11:58:29;21.00;97.30
15341;DHT22;7770;52.158;5.372;2023-06-01T12:01:16;20.30;98.30
15341;DHT22;7770;52.158;5.372;2023-06-01T12:04:03;20.10;98.80
15341;DHT22;7770;52.158;5.372;2023-06-01T12:06:50;20.10;99.10
15341;DHT22;7770;52.158;5.372;2023-06-01T12:09:37;19.60;99.80
15341;DHT22;7770;52.158;5.372;2023-06-01T12:12:24;19.70;99.60
15341;DHT22;7770;52.158;5.372;2023-06-01T12:15:11;19.30;99.90
15341;DHT22;7770;52.158;5.372;2023-06-01T12:17:59;19.00;99.90
15341;DHT22;7770;52.158;5.372;2023-06-01T12:20:45;18.80;99.90
15341;DHT22;7770;52.158;5.372;2023-06-01T12:23:32;18.60;99.90
15341;DHT22;7770;52.158;5.372;2023-06-01T12:26:19;18.10;99.90
15341;DHT22;7770;52.158;5.372;2023-06-01T12:29:05;18.20;99.90
15341;DHT22;7770;52.158;5.372;2023-06-01T12:31:52;18.50;99.90
15341;DHT22;7770;52.158;5.372;2023-06-01T12:34:40;18.20;99.90
15341;DHT22;7770;52.158;5.372;2023-06-01T12:37:32;17.80;99.90
15341;DHT22;7770;52.158;5.372;2023-06-01T12:40:22;17.70;99.90
15341;DHT22;7770;52.158;5.372;2023-06-01T12:43:18;17.80;99.90
15341;DHT22;7770;52.158;5.372;2023-06-01T12:46:04;17.60;99.90
15341;DHT22;7770;52.158;5.372;2023-06-01T12:48:53;17.50;99.90
15341;DHT22;7770;52.158;5.372;2023-06-01T12:51:56;17.50;99.90
15341;DHT22;7770;52.158;5.372;2023-06-01T12:54:42;17.40;99.90
15341;DHT22;7770;52.158;5.372;2023-06-01T12:57:28;17.50;99.90
15341;DHT22;7770;52.158;5.372;2023-06-01T13:00:15;17.40;99.90
15341;DHT22;7770;52.158;5.372;2023-06-01T13:03:01;17.20;99.90
15341;DHT22;7770;52.158;5.372;2023-06-01T13:05:47;17.10;99.90
15341;DHT22;7770;52.158;5.372;2023-06-01T13:08:35;17.20;99.90
15341;DHT22;7770;52.158;5.372;2023-06-01T13:11:21;17.10;99.90
15341;DHT22;7770;52.158;5.372;2023-06-01T13:14:10;17.10;99.90
15341;DHT22;7770;52.158;5.372;2023-06-01T13:16:56;17.20;99.90
15341;DHT22;7770;52.158;5.372;2023-06-01T13:19:42;17.10;99.90
15341;DHT22;7770;52.158;5.372;2023-06-01T13:22:28;17.10;99.90
15341;DHT22;7770;52.158;5.372;2023-06-01T13:25:14;16.80;99.90
15341;DHT22;7770;52.158;5.372;2023-06-01T13:28:01;16.70;99.90
15341;DHT22;7770;52.158;5.372;2023-06-01T13:30:47;16.50;99.90
15341;DHT22;7770;52.158;5.372;2023-06-01T13:33:33;16.90;99.90
15341;DHT22;7770;52.158;5.372;2023-06-01T13:36:19;17.10;99.90
15341;DHT22;7770;52.158;5.372;2023-06-01T13:39:05;17.10;99.90
15341;DHT22;7770;52.158;5.372;2023-06-01T13:41:51;17.10;99.90
15341;DHT22;7770;52.158;5.372;2023-06-01T13:44:37;17.40;99.90
15341;DHT22;7770;52.158;5.372;2023-06-01T13:47:23;17.70;99.90
15341;DHT22;7770;52.158;5.372;2023-06-01T13:50:09;17.70;99.90
15341;DHT22;7770;52.158;5.372;2023-06-01T13:52:57;17.60;99.90
15341;DHT22;7770;52.158;5.372;2023-06-01T13:55:43;17.50;99.90
15341;DHT22;7770;52.158;5.372;2023-06-01T13:58:29;17.40;99.90
15341;DHT22;7770;52.158;5.372;2023-06-01T14:01:16;17.30;99.90
15341;DHT22;7770;52.158;5.372;2023-06-01T14:04:02;17.40;99.90
15341;DHT22;7770;52.158;5.372;2023-06-01T14:06:49;17.10;99.90
15341;DHT22;7770;52.158;5.372;2023-06-01T14:09:37;16.80;99.90
15341;DHT22;7770;52.158;5.372;2023-06-01T14:12:23;16.90;99.90
15341;DHT22;7770;52.158;5.372;2023-06-01T14:15:09;17.10;99.90
15341;DHT22;7770;52.158;5.372;2023-06-01T14:17:56;17.00;99.90
15341;DHT22;7770;52.158;5.372;2023-06-01T14:20:42;17.00;99.90
15341;DHT22;7770;52.158;5.372;2023-06-01T14:23:28;16.90;99.90
15341;DHT22;7770;52.158;5.372;2023-06-01T14:26:15;16.60;99.90
15341;DHT22;7770;52.158;5.372;2023-06-01T14:29:01;16.40;99.90
15341;DHT22;7770;52.158;5.372;2023-06-01T14:31:47;16.30;99.90
15341;DHT22;7770;52.158;5.372;2023-06-01T14:34:33;16.30;99.90
15341;DHT22;7770;52.158;5.372;2023-06-01T14:37:19;16.40;99.90
15341;DHT22;7770;52.158;5.372;2023-06-01T14:40:05;16.40;99.90
15341;DHT22;7770;52.158;5.372;2023-06-01T14:42:51;16.40;99.90
15341;DHT22;7770;52.158;5.372;2023-06-01T14:45:37;16.30;99.90
15341;DHT22;7770;52.158;5.372;2023-06-01T14:48:23;16.20;99.90
15341;DHT22;7770;52.158;5.372;2023-06-01T14:51:09;16.30;99.90
15341;DHT22;7770;52.158;5.372;2023-06-01T14:53:56;16.40;99.90
15341;DHT22;7770;52.158;5.372;2023-06-01T14:56:42;16.60;99.90
15341;DHT22;7770;52.158;5.372;2023-06-01T14:59:28;16.70;99.90
15341;DHT22;7770;52.158;5.372;2023-06-01T15:02:14;16.80;99.90
15341;DHT22;7770;52.158;5.372;2023-06-01T15:05:00;16.80;99.90
15341;DHT22;7770;52.158;5.372;2023-06-01T15:07:46;16.80;99.90
15341;DHT22;7770;52.158;5.372;2023-06-01T15:10:32;16.90;99.90
15341;DHT22;7770;52.158;5.372;2023-06-01T15:13:18;17.00;99.90
15341;DHT22;7770;52.158;5.372;2023-06-01T15:16:05;17.00;99.90
15341;DHT22;7770;52.158;5.372;2023-06-01T15:18:53;17.00;99.90
15341;DHT22;7770;52.158;5.372;2023-06-01T15:21:39;16.60;99.90
15341;DHT22;7770;52.158;5.372;2023-06-01T15:24:25;16.50;99.90
15341;DHT22;7770;52.158;5.372;2023-06-01T15:27:11;16.40;99.90
15341;DHT22;7770;52.158;5.372;2023-06-01T15:29:57;16.10;99.90
15341;DHT22;7770;52.158;5.372;2023-06-01T15:32:43;16.20;99.90
15341;DHT22;7770;52.158;5.372;2023-06-01T15:35:29;16.20;99.90
15341;DHT22;7770;52.158;5.372;2023-06-01T15:38:15;16.00;99.90
15341;DHT22;7770;52.158;5.372;2023-06-01T15:41:02;16.00;99.90
15341;DHT22;7770;52.158;5.372;2023-06-01T15:43:48;16.20;99.90
15341;DHT22;7770;52.158;5.372;2023-06-01T15:46:34;16.30;99.90
15341;DHT22;7770;52.158;5.372;2023-06-01T15:49:20;16.10;99.90
15341;DHT22;7770;52.158;5.372;2023-06-01T15:52:07;16.10;99.90
15341;DHT22;7770;52.158;5.372;2023-06-01T15:54:53;16.10;99.90
15341;DHT22;7770;52.158;5.372;2023-06-01T15:57:40;16.00;99.90
15341;DHT22;7770;52.158;5.372;2023-06-01T16:00:26;15.90;99.90
15341;DHT22;7770;52.158;5.372;2023-06-01T16:03:13;15.80;99.90
15341;DHT22;7770;52.158;5.372;2023-06-01T16:05:59;15.70;99.90
15341;DHT22;7770;52.158;5.372;2023-06-01T16:08:45;15.70;99.90
15341;DHT22;7770;52.158;5.372;2023-06-01T16:11:31;15.80;99.90
15341;DHT22;7770;52.158;5.372;2023-06-01T16:14:17;15.90;99.90
15341;DHT22;7770;52.158;5.372;2023-06-01T16:17:03;15.90;99.90
15341;DHT22;7770;52.158;5.372;2023-06-01T16:19:49;15.90;99.90
15341;DHT22;7770;52.158;5.372;2023-06-01T16:22:35;16.10;99.90
15341;DHT22;7770;52.158;5.372;2023-06-01T16:25:22;16.20;99.90
15341;DHT22;7770;52.158;5.372;2023-06-01T16:28:11;16.40;99.90
15341;DHT22;7770;52.158;5.372;2023-06-01T16:30:57;16.50;99.90
15341;DHT22;7770;52.158;5.372;2023-06-01T16:33:43;16.60;99.90
15341;DHT22;7770;52.158;5.372;2023-06-01T16:36:29;16.50;99.90
15341;DHT22;7770;52.158;5.372;2023-06-01T16:39:15;16.20;99.90
15341;DHT22;7770;52.158;5.372;2023-06-01T16:42:01;16.00;99.90
15341;DHT22;7770;52.158;5.372;2023-06-01T16:44:48;15.80;99.90
15341;DHT22;7770;52.158;5.372;2023-06-01T16:47:34;15.60;99.90
15341;DHT22;7770;52.158;5.372;2023-06-01T16:50:20;15.30;99.90
15341;DHT22;7770;52.158;5.372;2023-06-01T16:53:06;15.20;99.90
15341;DHT22;7770;52.158;5.372;2023-06-01T16:55:52;15.10;99.90
15341;DHT22;7770;52.158;5.372;2023-06-01T16:58:38;15.00;99.90
15341;DHT22;7770;52.158;5.372;2023-06-01T17:01:24;15.00;99.90
15341;DHT22;7770;52.158;5.372;2023-06-01T17:04:10;15.00;99.90
15341;DHT22;7770;52.158;5.372;2023-06-01T17:06:56;15.00;99.90
15341;DHT22;7770;52.158;5.372;2023-06-01T17:09:42;15.00;99.90
15341;DHT22;7770;52.158;5.372;2023-06-01T17:12:28;15.00;99.90
15341;DHT22;7770;52.158;5.372;2023-06-01T17:15:14;14.90;99.90
15341;DHT22;7770;52.158;5.372;2023-06-01T17:18:00;14.80;99.90
15341;DHT22;7770;52.158;5.372;2023-06-01T17:20:46;14.90;99.90
15341;DHT22;7770;52.158;5.372;2023-06-01T17:23:32;14.90;99.90
15341;DHT22;7770;52.158;5.372;2023-06-01T17:26:19;14.80;99.90
15341;DHT22;7770;52.158;5.372;2023-06-01T17:29:06;14.70;99.90
15341;DHT22;7770;52.158;5.372;2023-06-01T17:31:52;14.60;99.90
15341;DHT22;7770;52.158;5.372;2023-06-01T17:34:38;14.60;99.90
15341;DHT22;7770;52.158;5.372;2023-06-01T17:37:24;14.40;99.90
15341;DHT22;7770;52.158;5.372;2023-06-01T17:40:11;14.30;99.90
15341;DHT22;7770;52.158;5.372;2023-06-01T17:42:57;14.30;99.90
15341;DHT22;7770;52.158;5.372;2023-06-01T17:45:43;14.30;99.90
15341;DHT22;7770;52.158;5.372;2023-06-01T17:48:30;14.40;99.90
15341;DHT22;7770;52.158;5.372;2023-06-01T17:51:16;14.40;99.90
15341;DHT22;7770;52.158;5.372;2023-06-01T17:54:02;14.30;99.90
15341;DHT22;7770;52.158;5.372;2023-06-01T17:56:48;14.30;99.90
15341;DHT22;7770;52.158;5.372;2023-06-01T17:59:34;14.30;99.90
15341;DHT22;7770;52.158;5.372;2023-06-01T18:02:20;14.30;99.90
15341;DHT22;7770;52.158;5.372;2023-06-01T18:05:06;14.20;99.90
15341;DHT22;7770;52.158;5.372;2023-06-01T18:07:52;14.10;99.90
15341;DHT22;7770;52.158;5.372;2023-06-01T18:10:39;14.10;99.90
15341;DHT22;7770;52.158;5.372;2023-06-01T18:13:25;14.10;99.90
15341;DHT22;7770;52.158;5.372;2023-06-01T18:16:11;14.00;99.90
15341;DHT22;7770;52.158;5.372;2023-06-01T18:18:57;13.80;99.90